Terminal Aerodrome Forecast
Issued by NWS Burlington, VT

Home | Current Version | Previous Version | Text Only | Print | Product List | Glossary On
Versions: 1 2 3 4 5 6 7 8 9 10 11 12 13 14 15 16 17
502
FTUS41 KBTV 200531
TAFBTV
TAF
KBTV 200531Z 2006/2106 VRB03KT P6SM SCT015 OVC028
      TEMPO 2006/2010 BKN015 OVC025
     FM201700 19006KT P6SM BKN035
     FM210400 15004KT P6SM BKN020=

USA.gov is the U.S. government's official web portal to all federal, state and local government web resources and services.